createdAt,value
2022-11-27T00:01:31.174Z,29.35
2022-11-27T00:03:58.724Z,33.92
2022-11-27T00:06:28.199Z,37.10
2022-11-27T00:09:00.896Z,36.58
2022-11-27T00:11:30.606Z,40.47
2022-11-27T00:13:59.018Z,41.85
2022-11-27T00:16:27.641Z,41.58
2022-11-27T00:18:55.464Z,39.97
2022-11-27T00:21:28.650Z,37.88
2022-11-27T00:23:58.514Z,39.55
2022-11-27T00:26:27.120Z,39.30
2022-11-27T00:28:55.941Z,39.95
2022-11-27T00:31:29.784Z,40.10
2022-11-27T00:33:59.562Z,41.78
2022-11-27T00:36:28.781Z,42.15
2022-11-27T00:38:56.628Z,39.30
2022-11-27T00:41:26.225Z,40.95
2022-11-27T00:43:54.590Z,43.33
2022-11-27T00:46:28.460Z,44.97
2022-11-27T00:51:26.317Z,44.70
2022-11-27T00:53:54.977Z,40.42
2022-11-27T00:56:25.408Z,42.30
2022-11-27T00:58:53.715Z,45.67
2022-11-27T01:01:30.453Z,38.17
2022-11-27T01:03:59.734Z,35.55
2022-11-27T01:06:28.356Z,37.78
2022-11-27T01:08:59.316Z,36.55
2022-11-27T01:11:29.866Z,41.88
2022-11-27T01:13:59.422Z,39.72
2022-11-27T01:16:28.936Z,41.60
2022-11-27T01:18:58.763Z,40.90
2022-11-27T01:21:29.127Z,40.05
2022-11-27T01:23:57.179Z,40.20
2022-11-27T01:26:25.153Z,41.13
2022-11-27T01:28:54.281Z,44.53
2022-11-27T01:31:24.730Z,44.53
2022-11-27T01:33:54.226Z,43.65
2022-11-27T01:36:22.210Z,44.13
2022-11-27T01:38:50.313Z,47.67
2022-11-27T01:41:27.773Z,45.45
2022-11-27T01:43:58.266Z,45.40
2022-11-27T01:46:34.653Z,48.15
2022-11-27T01:49:11.186Z,36.70
2022-11-27T01:51:45.110Z,38.10
2022-11-27T01:54:13.825Z,38.47
2022-11-27T01:56:43.804Z,37.50
2022-11-27T01:59:12.637Z,38.33
2022-11-27T02:01:40.252Z,37.05
2022-11-27T02:04:07.802Z,37.85
2022-11-27T02:06:35.378Z,37.58
2022-11-27T02:09:03.801Z,35.78
2022-11-27T02:12:04.791Z,35.72
2022-11-27T02:15:10.940Z,37.10
2022-11-27T02:18:01.467Z,34.72
2022-11-27T02:20:44.253Z,34.88
2022-11-27T02:23:53.611Z,33.50
2022-11-27T02:26:38.045Z,35.10
2022-11-27T02:29:13.710Z,37.47
2022-11-27T02:32:12.541Z,43.35
2022-11-27T02:34:47.328Z,38.25
2022-11-27T02:37:32.915Z,37.20
2022-11-27T02:40:13.359Z,34.55
2022-11-27T02:42:47.200Z,35.72
2022-11-27T02:45:18.920Z,39.75
2022-11-27T02:47:49.094Z,37.10
2022-11-27T02:50:20.871Z,37.88
2022-11-27T02:52:51.840Z,46.72
2022-11-27T02:55:25.074Z,43.33
2022-11-27T02:57:55.658Z,35.85
2022-11-27T03:00:23.479Z,38.60
2022-11-27T03:02:57.263Z,36.17
2022-11-27T03:05:29.339Z,35.05
2022-11-27T03:08:05.773Z,32.17
2022-11-27T03:10:57.120Z,34.30
2022-11-27T03:13:25.712Z,33.08
2022-11-27T03:16:09.276Z,37.38
2022-11-27T03:18:57.208Z,37.35
2022-11-27T03:21:37.472Z,36.55
2022-11-27T03:24:06.577Z,37.85
2022-11-27T03:26:35.673Z,34.67
2022-11-27T03:29:07.227Z,33.05
2022-11-27T03:31:35.459Z,31.83
2022-11-27T03:34:03.135Z,32.75
2022-11-27T03:36:30.619Z,38.95
2022-11-27T03:38:58.324Z,41.90
2022-11-27T03:42:02.557Z,39.25
2022-11-27T03:44:48.211Z,35.28
2022-11-27T03:47:41.692Z,37.00
2022-11-27T03:50:21.945Z,37.15
2022-11-27T03:53:01.947Z,40.47
2022-11-27T03:55:41.463Z,39.55
2022-11-27T03:58:16.074Z,42.53
2022-11-27T04:00:46.011Z,42.78
2022-11-27T04:03:14.004Z,41.47
2022-11-27T04:05:41.673Z,42.60
2022-11-27T04:08:09.357Z,41.13
2022-11-27T04:10:36.871Z,40.13
2022-11-27T04:13:04.409Z,43.80
2022-11-27T04:15:31.908Z,40.50
2022-11-27T04:17:59.391Z,39.85
2022-11-27T04:20:26.999Z,39.17
2022-11-27T04:22:54.486Z,42.15
2022-11-27T04:25:22.632Z,41.60
2022-11-27T04:27:50.710Z,42.42
2022-11-27T04:30:18.551Z,41.33
2022-11-27T04:32:46.033Z,40.72
2022-11-27T04:35:14.673Z,42.35
2022-11-27T04:37:51.461Z,41.25
2022-11-27T04:40:19.342Z,41.35
2022-11-27T04:42:47.005Z,41.13
2022-11-27T04:45:14.513Z,43.42
2022-11-27T04:47:42.148Z,45.35
2022-11-27T04:50:10.579Z,69.85
2022-11-27T04:52:38.037Z,62.90
2022-11-27T04:55:06.008Z,56.45
2022-11-27T04:57:33.644Z,76.40
2022-11-27T05:00:05.041Z,61.78
2022-11-27T05:02:32.619Z,64.90
2022-11-27T05:05:00.251Z,65.05
2022-11-27T05:07:27.828Z,78.90
2022-11-27T05:09:55.347Z,94.28
2022-11-27T05:12:22.971Z,93.43
2022-11-27T05:14:50.464Z,70.93
2022-11-27T05:17:17.949Z,101.32
2022-11-27T05:19:45.457Z,79.07
2022-11-27T05:22:12.956Z,74.13
2022-11-27T05:24:40.932Z,71.82
2022-11-27T05:27:10.367Z,72.05
2022-11-27T05:29:39.933Z,71.97
2022-11-27T05:32:08.436Z,72.32
2022-11-27T05:34:35.952Z,73.22
2022-11-27T05:37:03.466Z,69.97
2022-11-27T05:39:31.082Z,69.47
2022-11-27T05:41:58.662Z,95.72
2022-11-27T05:44:26.374Z,67.50
2022-11-27T05:46:54.063Z,104.95
2022-11-27T05:49:21.829Z,122.20
2022-11-27T05:51:51.359Z,89.13
2022-11-27T05:54:19.511Z,117.53
2022-11-27T05:56:47.250Z,93.22
2022-11-27T05:59:15.117Z,79.40
2022-11-27T06:01:43.180Z,106.82
2022-11-27T06:04:10.683Z,96.82
2022-11-27T06:06:38.365Z,92.88
2022-11-27T06:09:11.056Z,81.38
2022-11-27T06:14:10.037Z,75.22
2022-11-27T06:16:37.951Z,79.40
2022-11-27T06:19:05.573Z,76.00
2022-11-27T06:21:33.178Z,74.38
2022-11-27T06:24:00.905Z,72.53
2022-11-27T06:26:30.779Z,72.22
2022-11-27T06:29:00.276Z,75.47
2022-11-27T06:31:32.033Z,78.72
2022-11-27T06:34:00.119Z,67.32
2022-11-27T06:36:30.459Z,67.63
2022-11-27T06:38:58.083Z,68.82
2022-11-27T06:41:27.227Z,66.85
2022-11-27T06:43:56.074Z,88.65
2022-11-27T06:46:24.464Z,69.63
2022-11-27T06:48:53.814Z,62.35
2022-11-27T06:51:25.061Z,63.08
2022-11-27T06:53:53.682Z,59.83
2022-11-27T06:56:25.371Z,58.08
2022-11-27T06:58:54.836Z,58.78
2022-11-27T07:01:24.128Z,63.35
2022-11-27T07:03:52.104Z,61.83
2022-11-27T07:06:22.462Z,58.22
2022-11-27T07:08:50.698Z,59.60
2022-11-27T07:11:25.637Z,56.13
2022-11-27T07:13:56.064Z,54.15
2022-11-27T07:16:24.436Z,56.47
2022-11-27T07:18:54.672Z,53.35
2022-11-27T07:21:22.731Z,57.70
2022-11-27T07:23:50.290Z,65.88
2022-11-27T07:26:20.440Z,70.88
2022-11-27T07:28:48.618Z,51.22
2022-11-27T07:31:19.703Z,53.75
2022-11-27T07:33:47.664Z,52.53
2022-11-27T07:36:19.298Z,52.05
2022-11-27T07:38:47.391Z,49.35
2022-11-27T07:41:16.539Z,50.78
2022-11-27T07:43:45.595Z,52.45
2022-11-27T07:46:17.853Z,49.35
2022-11-27T07:48:45.571Z,51.72
2022-11-27T07:51:15.469Z,48.65
2022-11-27T07:53:43.557Z,46.83
2022-11-27T07:56:13.426Z,46.20
2022-11-27T07:58:41.281Z,44.65
2022-11-27T08:01:11.247Z,43.97
2022-11-27T08:03:39.450Z,43.00
2022-11-27T08:06:15.134Z,40.55
2022-11-27T08:08:43.598Z,41.38
2022-11-27T08:11:17.009Z,39.42
2022-11-27T08:13:44.611Z,40.05
2022-11-27T08:16:12.220Z,40.22
2022-11-27T08:18:39.835Z,40.10
2022-11-27T08:21:07.747Z,40.22
2022-11-27T08:23:35.720Z,41.25
2022-11-27T08:26:10.312Z,39.40
2022-11-27T08:31:07.171Z,40.47
2022-11-27T08:33:35.475Z,39.60
2022-11-27T08:36:04.561Z,39.80
2022-11-27T08:38:32.420Z,43.53
2022-11-27T08:41:02.529Z,41.88
2022-11-27T08:43:30.946Z,41.42
2022-11-27T08:45:58.936Z,43.00
2022-11-27T08:48:26.653Z,42.75
2022-11-27T08:50:54.390Z,39.65
2022-11-27T08:53:22.036Z,41.15
2022-11-27T08:55:52.474Z,41.10
2022-11-27T08:58:20.307Z,41.00
2022-11-27T09:00:47.836Z,36.00
2022-11-27T09:03:15.534Z,35.05
2022-11-27T09:05:44.536Z,35.85
2022-11-27T09:08:16.464Z,39.05
2022-11-27T09:10:43.994Z,36.63
2022-11-27T09:13:12.170Z,34.75
2022-11-27T09:15:39.681Z,31.92
2022-11-27T09:18:07.186Z,33.00
2022-11-27T09:20:34.772Z,29.45
2022-11-27T09:23:02.589Z,33.08
2022-11-27T09:25:30.169Z,32.13
2022-11-27T09:27:57.670Z,31.67
2022-11-27T09:30:26.198Z,31.35
2022-11-27T09:32:54.507Z,31.25
2022-11-27T09:35:22.098Z,33.13
2022-11-27T09:37:49.853Z,31.63
2022-11-27T09:40:17.765Z,32.28
2022-11-27T09:43:02.189Z,31.63
2022-11-27T09:45:30.588Z,32.35
2022-11-27T09:48:13.804Z,33.58
2022-11-27T09:50:50.274Z,30.08
2022-11-27T09:53:23.402Z,30.60
2022-11-27T09:55:54.766Z,29.00
2022-11-27T09:58:43.664Z,29.88
2022-11-27T10:01:17.739Z,29.42
2022-11-27T10:03:47.501Z,30.42
2022-11-27T10:06:21.019Z,32.45
2022-11-27T10:09:10.431Z,32.57
2022-11-27T10:11:41.509Z,36.05
2022-11-27T10:14:27.439Z,33.67
2022-11-27T10:16:58.960Z,33.90
2022-11-27T10:19:35.997Z,34.13
2022-11-27T10:22:24.258Z,33.67
2022-11-27T10:25:00.772Z,36.10
2022-11-27T10:27:47.485Z,37.65
2022-11-27T10:30:18.435Z,38.53
2022-11-27T10:32:56.796Z,38.10
2022-11-27T10:35:30.608Z,39.08
2022-11-27T10:38:14.768Z,37.45
2022-11-27T10:40:53.472Z,38.80
2022-11-27T10:43:23.345Z,38.92
2022-11-27T10:45:59.293Z,40.40
2022-11-27T10:48:29.454Z,42.20
2022-11-27T10:50:57.427Z,42.80
2022-11-27T10:53:32.200Z,42.03
2022-11-27T10:56:12.079Z,48.03
2022-11-27T10:59:04.958Z,43.58
2022-11-27T11:01:47.528Z,45.22
2022-11-27T11:04:38.739Z,43.97
2022-11-27T11:07:25.400Z,45.55
2022-11-27T11:09:54.271Z,45.55
2022-11-27T11:12:24.002Z,47.40
2022-11-27T11:14:59.506Z,46.03
2022-11-27T11:17:34.344Z,46.75
2022-11-27T11:20:35.774Z,43.25
2022-11-27T11:23:06.395Z,46.25
2022-11-27T11:25:34.145Z,45.38
2022-11-27T11:28:01.656Z,54.03
2022-11-27T11:30:30.449Z,51.85
2022-11-27T11:33:03.721Z,48.33
2022-11-27T11:35:35.453Z,52.05
2022-11-27T11:38:05.737Z,47.47
2022-11-27T11:40:35.806Z,75.50
2022-11-27T11:43:27.371Z,48.13
2022-11-27T11:46:03.152Z,49.55
2022-11-27T11:48:30.827Z,77.75
2022-11-27T11:51:30.141Z,47.00
2022-11-27T11:54:34.692Z,48.22
2022-11-27T11:57:06.869Z,49.58
2022-11-27T11:59:54.138Z,56.72
2022-11-27T12:02:27.837Z,46.70
2022-11-27T12:05:09.781Z,44.83
2022-11-27T12:07:40.311Z,41.45
2022-11-27T12:10:27.984Z,40.83
2022-11-27T12:13:06.868Z,42.67
2022-11-27T12:16:07.603Z,46.88
2022-11-27T12:19:12.647Z,43.25
2022-11-27T12:21:40.058Z,45.95
2022-11-27T12:24:38.864Z,42.33
2022-11-27T12:27:42.178Z,42.13
2022-11-27T12:30:17.712Z,42.20
2022-11-27T12:32:58.087Z,43.85
2022-11-27T12:35:34.737Z,42.60
2022-11-27T12:38:23.108Z,45.50
2022-11-27T12:41:22.570Z,44.15
2022-11-27T12:43:55.983Z,46.05
2022-11-27T12:46:51.871Z,43.22
2022-11-27T12:49:25.907Z,42.25
2022-11-27T12:51:53.324Z,46.70
2022-11-27T12:54:38.448Z,78.05
2022-11-27T12:57:15.360Z,51.42
2022-11-27T12:59:55.722Z,44.22
2022-11-27T13:02:57.338Z,44.80
2022-11-27T13:06:00.930Z,42.58
2022-11-27T13:09:02.109Z,48.75
2022-11-27T13:11:33.414Z,60.88
2022-11-27T13:14:24.050Z,47.55
2022-11-27T13:17:00.759Z,43.25
2022-11-27T13:19:32.796Z,45.95
2022-11-27T13:22:04.541Z,47.00
2022-11-27T13:24:33.683Z,55.88
2022-11-27T13:27:23.992Z,45.58
2022-11-27T13:30:08.026Z,46.28
2022-11-27T13:32:52.361Z,45.20
2022-11-27T13:35:30.975Z,46.42
2022-11-27T13:38:27.105Z,46.42
2022-11-27T13:40:56.189Z,47.08
2022-11-27T13:43:30.464Z,49.80
2022-11-27T13:46:07.247Z,44.97
2022-11-27T13:48:38.253Z,46.55
2022-11-27T13:51:08.246Z,48.47
2022-11-27T13:53:42.268Z,46.63
2022-11-27T13:56:10.091Z,51.57
2022-11-27T13:58:40.325Z,50.45
2022-11-27T14:01:14.045Z,57.15
2022-11-27T14:03:41.928Z,95.60
2022-11-27T14:06:31.509Z,56.85
2022-11-27T14:09:02.038Z,47.42
2022-11-27T14:11:39.977Z,46.35
2022-11-27T14:14:22.858Z,49.63
2022-11-27T14:17:09.147Z,45.08
2022-11-27T14:19:41.937Z,38.85
2022-11-27T14:22:17.467Z,36.63
2022-11-27T14:24:53.377Z,37.70
2022-11-27T14:27:24.799Z,39.13
2022-11-27T14:29:55.965Z,40.65
2022-11-27T14:32:35.652Z,42.30
2022-11-27T14:35:04.512Z,61.00
2022-11-27T14:37:32.381Z,51.35
2022-11-27T14:40:13.871Z,50.75
2022-11-27T14:42:41.421Z,43.50
2022-11-27T14:45:21.668Z,40.15
2022-11-27T14:47:54.646Z,39.75
2022-11-27T14:50:23.000Z,38.88
2022-11-27T14:52:54.762Z,40.38
2022-11-27T14:55:23.325Z,43.85
2022-11-27T14:57:51.492Z,42.95
2022-11-27T15:00:27.272Z,43.15
2022-11-27T15:03:07.256Z,42.90
2022-11-27T15:05:37.434Z,41.72
2022-11-27T15:08:09.832Z,46.63
2022-11-27T15:10:41.476Z,43.50
2022-11-27T15:13:21.435Z,42.55
2022-11-27T15:15:58.954Z,41.13
2022-11-27T15:18:27.939Z,42.15
2022-11-27T15:20:57.422Z,40.53
2022-11-27T15:23:29.245Z,48.55
2022-11-27T15:25:59.814Z,70.63
2022-11-27T15:28:45.815Z,51.42
2022-11-27T15:31:26.648Z,83.68
2022-11-27T15:33:57.419Z,49.85
2022-11-27T15:36:26.071Z,57.90
2022-11-27T15:39:14.035Z,61.75
2022-11-27T15:41:50.963Z,47.38
2022-11-27T15:44:18.720Z,48.20
2022-11-27T15:46:47.230Z,48.72
2022-11-27T15:49:15.403Z,50.35
2022-11-27T15:51:43.520Z,51.80
2022-11-27T15:54:12.477Z,52.90
2022-11-27T15:56:40.369Z,54.60
2022-11-27T15:59:10.124Z,63.78
2022-11-27T16:01:38.244Z,49.08
2022-11-27T16:04:05.797Z,50.55
2022-11-27T16:06:37.801Z,47.25
2022-11-27T16:09:06.613Z,49.55
2022-11-27T16:11:35.203Z,54.38
2022-11-27T16:14:02.672Z,60.80
2022-11-27T16:16:32.405Z,57.65
2022-11-27T16:19:01.164Z,50.17
2022-11-27T16:21:30.266Z,50.45
2022-11-27T16:24:07.037Z,54.50
2022-11-27T16:26:38.233Z,53.25
2022-11-27T16:29:08.815Z,54.38
2022-11-27T16:31:37.359Z,55.88
2022-11-27T16:34:07.915Z,64.13
2022-11-27T16:36:44.678Z,63.15
2022-11-27T16:39:17.583Z,88.75
2022-11-27T16:41:45.409Z,95.03
2022-11-27T16:44:15.157Z,63.00
2022-11-27T16:46:44.625Z,70.18
2022-11-27T16:49:13.240Z,56.30
2022-11-27T16:51:44.194Z,49.88
2022-11-27T16:54:13.254Z,53.17
2022-11-27T16:56:43.506Z,46.88
2022-11-27T16:59:13.966Z,41.47
2022-11-27T17:01:42.728Z,37.83
2022-11-27T17:04:18.370Z,35.25
2022-11-27T17:06:48.017Z,38.05
2022-11-27T17:09:16.098Z,40.13
2022-11-27T17:11:48.681Z,42.20
2022-11-27T17:14:16.979Z,37.58
2022-11-27T17:16:45.459Z,38.55
2022-11-27T17:19:16.454Z,43.85
2022-11-27T17:21:45.844Z,45.22
2022-11-27T17:24:16.118Z,68.88
2022-11-27T17:26:48.465Z,45.55
2022-11-27T17:29:18.988Z,40.45
2022-11-27T17:31:46.779Z,42.38
2022-11-27T17:34:16.528Z,36.40
2022-11-27T17:36:45.571Z,35.85
2022-11-27T17:39:18.288Z,38.03
2022-11-27T17:41:50.992Z,46.10
2022-11-27T17:44:19.854Z,43.10
2022-11-27T17:46:50.583Z,42.00
2022-11-27T17:49:22.063Z,37.00
2022-11-27T17:51:50.867Z,38.55
2022-11-27T17:54:19.689Z,37.85
2022-11-27T17:56:51.380Z,36.05
2022-11-27T17:59:20.451Z,34.70
2022-11-27T18:01:51.417Z,36.78
2022-11-27T18:04:20.121Z,38.03
2022-11-27T18:06:50.083Z,37.97
2022-11-27T18:09:18.164Z,36.65
2022-11-27T18:11:46.049Z,35.33
2022-11-27T18:14:13.815Z,35.13
2022-11-27T18:16:42.010Z,37.17
2022-11-27T18:19:11.258Z,37.13
2022-11-27T18:21:39.379Z,37.15
2022-11-27T18:24:23.151Z,44.67
2022-11-27T18:27:07.803Z,44.03
2022-11-27T18:29:38.737Z,38.30
2022-11-27T18:32:07.219Z,41.58
2022-11-27T18:34:35.334Z,35.17
2022-11-27T18:37:04.148Z,40.80
2022-11-27T18:39:32.724Z,80.65
2022-11-27T18:42:01.254Z,40.22
2022-11-27T18:44:29.204Z,41.28
2022-11-27T18:46:57.173Z,35.33
2022-11-27T18:49:26.775Z,36.53
2022-11-27T18:51:55.112Z,35.40
2022-11-27T18:54:22.766Z,34.63
2022-11-27T18:56:51.188Z,38.45
2022-11-27T18:59:19.470Z,36.78
2022-11-27T19:01:48.503Z,30.63
2022-11-27T19:04:16.176Z,30.33
2022-11-27T19:06:45.123Z,31.63
2022-11-27T19:09:14.033Z,33.00
2022-11-27T19:11:42.288Z,29.70
2022-11-27T19:14:10.682Z,27.77
2022-11-27T19:16:46.179Z,28.73
2022-11-27T19:22:07.640Z,34.30
2022-11-27T19:24:36.603Z,38.63
2022-11-27T19:27:04.445Z,33.13
2022-11-27T19:29:35.555Z,34.63
2022-11-27T19:32:03.709Z,36.25
2022-11-27T19:34:31.781Z,36.25
2022-11-27T19:36:59.612Z,36.25
2022-11-27T19:39:28.908Z,160.98
2022-11-27T19:41:58.101Z,68.10
2022-11-27T19:44:26.611Z,111.57
2022-11-27T19:46:54.528Z,50.45
2022-11-27T19:49:23.081Z,37.50
2022-11-27T19:51:51.005Z,33.08
2022-11-27T19:54:21.834Z,38.42
2022-11-27T19:56:51.047Z,34.78
2022-11-27T19:59:25.351Z,38.10
2022-11-27T20:01:54.951Z,46.25
2022-11-27T20:04:27.782Z,35.05
2022-11-27T20:06:55.526Z,35.78
2022-11-27T20:09:24.463Z,32.63
2022-11-27T20:11:52.384Z,40.25
2022-11-27T20:14:20.366Z,47.08
2022-11-27T20:16:48.750Z,39.88
2022-11-27T20:19:17.940Z,41.10
2022-11-27T20:21:45.922Z,42.28
2022-11-27T20:24:14.980Z,42.25
2022-11-27T20:26:43.414Z,42.08
2022-11-27T20:29:16.536Z,45.67
2022-11-27T20:31:45.104Z,44.17
2022-11-27T20:34:21.141Z,43.13
2022-11-27T20:36:50.359Z,44.10
2022-11-27T20:39:21.617Z,43.60
2022-11-27T20:41:51.910Z,38.92
2022-11-27T20:44:20.323Z,36.83
2022-11-27T20:46:49.220Z,38.85
2022-11-27T20:49:17.970Z,37.65
2022-11-27T20:51:52.808Z,43.58
2022-11-27T20:54:23.358Z,42.10
2022-11-27T20:56:51.388Z,44.35
2022-11-27T20:59:19.845Z,42.78
2022-11-27T21:01:49.959Z,44.10
2022-11-27T21:04:24.001Z,87.50
2022-11-27T21:09:21.307Z,56.58
2022-11-27T21:11:49.090Z,58.92
2022-11-27T21:14:17.891Z,51.33
2022-11-27T21:16:48.587Z,51.72
2022-11-27T21:19:24.411Z,57.65
2022-11-27T21:21:53.604Z,55.90
2022-11-27T21:24:25.423Z,54.25
2022-11-27T21:26:53.420Z,54.38
2022-11-27T21:29:25.446Z,56.40
2022-11-27T21:31:55.394Z,56.90
2022-11-27T21:34:24.176Z,57.28
2022-11-27T21:36:51.719Z,56.63
2022-11-27T21:39:23.794Z,58.75
2022-11-27T21:41:55.036Z,84.38
2022-11-27T21:44:24.635Z,51.55
2022-11-27T21:46:52.207Z,101.75
2022-11-27T21:49:20.743Z,73.72
2022-11-27T21:51:53.754Z,81.18
2022-11-27T21:54:25.675Z,51.50
2022-11-27T21:56:53.459Z,48.63
2022-11-27T21:59:21.478Z,49.28
2022-11-27T22:01:49.522Z,49.67
2022-11-27T22:04:17.581Z,50.67
2022-11-27T22:06:48.135Z,49.97
2022-11-27T22:09:16.473Z,53.92
2022-11-27T22:11:46.248Z,48.53
2022-11-27T22:14:16.166Z,46.85
2022-11-27T22:16:46.635Z,47.08
2022-11-27T22:19:16.389Z,47.53
2022-11-27T22:21:44.699Z,69.43
2022-11-27T22:24:18.226Z,56.63
2022-11-27T22:26:48.191Z,69.18
2022-11-27T22:29:15.949Z,70.03
2022-11-27T22:31:43.921Z,72.00
2022-11-27T22:34:11.376Z,58.25
2022-11-27T22:36:39.496Z,48.88
2022-11-27T22:39:09.110Z,52.75
2022-11-27T22:41:39.050Z,47.13
2022-11-27T22:44:14.172Z,46.55
2022-11-27T22:46:42.515Z,48.47
2022-11-27T22:49:15.900Z,48.20
2022-11-27T22:51:45.396Z,47.33
2022-11-27T22:54:16.967Z,51.13
2022-11-27T22:56:46.312Z,46.42
2022-11-27T23:02:05.078Z,50.42
2022-11-27T23:04:37.982Z,46.92
2022-11-27T23:07:06.185Z,47.65
2022-11-27T23:09:35.011Z,44.90
2022-11-27T23:12:02.570Z,41.78
2022-11-27T23:14:30.036Z,42.85
2022-11-27T23:16:57.600Z,40.80
2022-11-27T23:19:25.186Z,38.92
2022-11-27T23:21:53.130Z,38.78
2022-11-27T23:24:20.970Z,39.08
2022-11-27T23:26:48.696Z,39.97
2022-11-27T23:29:16.253Z,38.03
2022-11-27T23:31:43.804Z,39.13
2022-11-27T23:34:14.354Z,30.45
2022-11-27T23:36:42.522Z,28.35
2022-11-27T23:39:12.174Z,29.50
2022-11-27T23:41:40.533Z,30.33
2022-11-27T23:44:08.447Z,30.52
2022-11-27T23:46:35.958Z,30.17
2022-11-27T23:49:03.529Z,28.65
2022-11-27T23:51:33.100Z,28.17
2022-11-27T23:54:01.573Z,26.30
2022-11-27T23:56:31.364Z,28.23
2022-11-27T23:58:59.956Z,27.40
